Nearby METAR Reports

 

LEVT - Vitoria, Spain
Distance from station: O 10km
Actualización: 03/12/2022 16:00
Muy nuboso
Muy nuboso
 Viento del NO
Viento: NO 15 km/h
Temperatura: 5°C
Wind Chill: 2°C
Rocío: 2°C
Humedad: 81%
Barómetro: 1006 hPa
Clouds: Muy nuboso
Visibility: 10 km
Cloud details: Parcialmente nuboso 518 m
Muy nuboso 671 m
2022/12/03 15:00 LEVT 031500Z 32008KT 280V360 9999 SCT017 BKN022 05/02 Q1006
LELO - Logrono/Agoncill, Spain
Distance from station: SSE 51km
Actualización: 03/12/2022 16:00
Lluvia débil, Cubierto
Lluvia débil, Cubierto
 Viento del varies
Viento: varies 2 km/h
Temperatura: 5°C
Rocío: 4°C
Humedad: 93%
Barómetro: 1007 hPa
Resumen: Lluvia débil
Clouds: Cubierto
Visibility: 10 km
Cloud details: Muy nuboso 518 m
Muy nuboso 1402 m
Cubierto 1524 m
2022/12/03 15:00 LELO 031500Z AUTO VRB01KT 9999 -RA BKN017 BKN046 OVC050 05/04 Q1007
LEBB - Bilbao/Sondica, Spain
Distance from station: NNO 54km
Actualización: 03/12/2022 16:00
Muy nuboso
Muy nuboso
 Viento del varies
Viento: varies 4 km/h
Temperatura: 7°C
Rocío: 5°C
Humedad: 87%
Barómetro: 1008 hPa
Clouds: Muy nuboso
Visibility: 10 km
Cloud details: Few Clouds 396 m
Muy nuboso 610 m
Muy nuboso 1280 m
2022/12/03 15:00 LEBB 031500Z VRB02KT 9999 FEW013 BKN020 BKN042 07/05 Q1008 TEMPO RA
 
LEPP - Pamplona/Noain, Spain
Distance from station: E 78km
Actualización: 03/12/2022 16:13
Probáblemente lluvioso, Muy nuboso
Probáblemente lluvioso, Muy nuboso
 Viento del S
Viento: S 17 km/h
Temperatura: 4°C
Wind Chill: 0°C
Rocío: 2°C
Humedad: 87%
Barómetro: 1007 hPa
Resumen: Probáblemente lluvioso
Clouds: Muy nuboso
Visibility: 10 km
Cloud details: Few Clouds 396 m
Muy nuboso 701 m
2022/12/03 15:13 LEPP 031513Z 19009KT 160V240 9999 RA FEW013 BKN023 04/02 Q1007
LESO - San Sebastian/Fu, Spain
Distance from station: NE 85km
Actualización: 03/12/2022 16:00
Muy nuboso
Muy nuboso
 Viento del E
Viento: E 9 km/h
Temperatura: 8°C
Wind Chill: 6°C
Rocío: 6°C
Humedad: 87%
Barómetro: 1007 hPa
Clouds: Muy nuboso
Visibility: 10 km
Cloud details: Few Clouds 366 m
Parcialmente nuboso 640 m
Muy nuboso 1006 m
2022/12/03 15:00 LESO 031500Z 10005KT 070V130 9999 FEW012 SCT021 BKN033 08/06 Q1007
LEBG - Burgos/Villafria, Spain
Distance from station: SO 100km
Actualización: 03/12/2022 16:00
Muy nuboso
Muy nuboso
 Viento del calm
Viento: Calma
Temperatura: 2°C
Rocío: 1°C
Humedad: 93%
Barómetro: 1006 hPa
Clouds: Muy nuboso
Visibility: 7 km
Cloud details: Muy nuboso 914 m
2022/12/03 15:00 LEBG 031500Z 00000KT 7000 BKN030 02/01 Q1006 RESN
 
LFBZ - Biarritz/Anglet, France
Distance from station: NE 111km
Actualización: 03/12/2022 16:00
Thunderstorm
Thunderstorm
 Viento del E
Viento: E 9 km/h
Temperatura: 7°C
Wind Chill: 6°C
Rocío: 5°C
Humedad: 87%
Barómetro: 1007 hPa
Clouds: Thunderstorm
Visibility: 10 km
Cloud details: Few Clouds 274 m
Muy nuboso 1006 m
Muy nuboso 1707 m
2022/12/03 15:00 LFBZ 031500Z AUTO 08005KT 9999 FEW009/// BKN033/// BKN056/// ///TCU 07/05 Q1007 TEMPO 4000 SHRA BKN008 BKN025TCU
LEXJ - Santander/Paraya, Spain
Distance from station: ONO 117km
Actualización: 03/12/2022 16:00
Muy nuboso
Muy nuboso
 Viento del SO
Viento: SO 11 km/h
Temperatura: 7°C
Wind Chill: 5°C
Rocío: 5°C
Humedad: 87%
Barómetro: 1009 hPa
Clouds: Muy nuboso
Visibility: 10 km
Cloud details: Few Clouds 549 m
Few Clouds 762 m
Muy nuboso 1341 m
2022/12/03 15:00 LEXJ 031500Z 22006KT 180V240 9999 FEW018 FEW025TCU BKN044 07/05 Q1009